sensor_id;sensor_type;location;lat;lon;timestamp;temperature;humidity
8832;DHT22;4452;50.756;4.472;2023-07-31T00:01:22;16.70;99.90
8832;DHT22;4452;50.756;4.472;2023-07-31T00:03:47;16.70;99.90
8832;DHT22;4452;50.756;4.472;2023-07-31T00:06:13;16.70;99.90
8832;DHT22;4452;50.756;4.472;2023-07-31T00:08:39;16.70;99.90
8832;DHT22;4452;50.756;4.472;2023-07-31T00:11:04;16.70;99.90
8832;DHT22;4452;50.756;4.472;2023-07-31T00:13:30;16.70;99.90
8832;DHT22;4452;50.756;4.472;2023-07-31T00:15:55;16.80;99.90
8832;DHT22;4452;50.756;4.472;2023-07-31T00:18:21;16.80;99.90
8832;DHT22;4452;50.756;4.472;2023-07-31T00:20:47;16.80;99.90
8832;DHT22;4452;50.756;4.472;2023-07-31T00:23:12;16.80;99.90
8832;DHT22;4452;50.756;4.472;2023-07-31T00:25:39;16.80;99.90
8832;DHT22;4452;50.756;4.472;2023-07-31T00:28:04;16.80;99.90
8832;DHT22;4452;50.756;4.472;2023-07-31T00:30:30;16.90;99.90
8832;DHT22;4452;50.756;4.472;2023-07-31T00:32:55;16.80;99.90
8832;DHT22;4452;50.756;4.472;2023-07-31T00:35:21;16.90;99.90
8832;DHT22;4452;50.756;4.472;2023-07-31T00:37:47;16.90;99.90
8832;DHT22;4452;50.756;4.472;2023-07-31T00:40:12;16.90;99.90
8832;DHT22;4452;50.756;4.472;2023-07-31T00:42:39;16.90;99.90
8832;DHT22;4452;50.756;4.472;2023-07-31T00:45:05;16.90;99.90
8832;DHT22;4452;50.756;4.472;2023-07-31T00:47:31;16.90;99.90
8832;DHT22;4452;50.756;4.472;2023-07-31T00:49:57;16.90;99.90
8832;DHT22;4452;50.756;4.472;2023-07-31T00:52:23;16.90;99.90
8832;DHT22;4452;50.756;4.472;2023-07-31T00:54:49;16.90;99.90
8832;DHT22;4452;50.756;4.472;2023-07-31T00:57:15;16.90;99.90
8832;DHT22;4452;50.756;4.472;2023-07-31T00:59:41;16.80;99.90
8832;DHT22;4452;50.756;4.472;2023-07-31T01:02:07;16.90;99.90
8832;DHT22;4452;50.756;4.472;2023-07-31T01:04:32;16.90;99.90
8832;DHT22;4452;50.756;4.472;2023-07-31T01:07:19;16.80;99.90
8832;DHT22;4452;50.756;4.472;2023-07-31T01:12:30;16.80;99.90
8832;DHT22;4452;50.756;4.472;2023-07-31T01:15:07;16.80;99.90
8832;DHT22;4452;50.756;4.472;2023-07-31T01:17:37;16.80;99.90
8832;DHT22;4452;50.756;4.472;2023-07-31T01:20:07;16.60;99.90
8832;DHT22;4452;50.756;4.472;2023-07-31T01:26:09;16.60;99.90
8832;DHT22;4452;50.756;4.472;2023-07-31T01:28:47;16.60;99.90
8832;DHT22;4452;50.756;4.472;2023-07-31T01:31:20;16.60;99.90
8832;DHT22;4452;50.756;4.472;2023-07-31T01:33:46;16.60;99.90
8832;DHT22;4452;50.756;4.472;2023-07-31T01:36:12;16.60;99.90
8832;DHT22;4452;50.756;4.472;2023-07-31T01:38:38;16.60;99.90
8832;DHT22;4452;50.756;4.472;2023-07-31T01:41:03;16.60;99.90
8832;DHT22;4452;50.756;4.472;2023-07-31T01:43:29;16.70;99.90
8832;DHT22;4452;50.756;4.472;2023-07-31T01:45:54;16.70;99.90
8832;DHT22;4452;50.756;4.472;2023-07-31T01:48:20;16.70;99.90
8832;DHT22;4452;50.756;4.472;2023-07-31T01:50:46;16.70;99.90
8832;DHT22;4452;50.756;4.472;2023-07-31T01:53:11;16.80;99.90
8832;DHT22;4452;50.756;4.472;2023-07-31T01:55:38;16.80;99.90
8832;DHT22;4452;50.756;4.472;2023-07-31T01:58:04;16.80;99.90
8832;DHT22;4452;50.756;4.472;2023-07-31T02:00:30;16.80;99.90
8832;DHT22;4452;50.756;4.472;2023-07-31T02:02:55;16.80;99.90
8832;DHT22;4452;50.756;4.472;2023-07-31T02:05:21;16.90;99.90
8832;DHT22;4452;50.756;4.472;2023-07-31T02:07:46;16.80;99.90
8832;DHT22;4452;50.756;4.472;2023-07-31T02:10:13;16.80;99.90
8832;DHT22;4452;50.756;4.472;2023-07-31T02:12:38;16.80;99.90
8832;DHT22;4452;50.756;4.472;2023-07-31T02:15:04;16.70;99.90
8832;DHT22;4452;50.756;4.472;2023-07-31T02:17:30;16.80;99.90
8832;DHT22;4452;50.756;4.472;2023-07-31T02:19:55;16.80;99.90
8832;DHT22;4452;50.756;4.472;2023-07-31T02:22:21;16.80;99.90
8832;DHT22;4452;50.756;4.472;2023-07-31T02:24:47;16.70;99.90
8832;DHT22;4452;50.756;4.472;2023-07-31T02:27:12;16.70;99.90
8832;DHT22;4452;50.756;4.472;2023-07-31T02:29:38;16.80;99.90
8832;DHT22;4452;50.756;4.472;2023-07-31T02:32:04;16.80;99.90
8832;DHT22;4452;50.756;4.472;2023-07-31T02:34:30;16.80;99.90
8832;DHT22;4452;50.756;4.472;2023-07-31T02:36:55;16.80;99.90
8832;DHT22;4452;50.756;4.472;2023-07-31T02:39:21;16.90;99.90
8832;DHT22;4452;50.756;4.472;2023-07-31T02:41:47;16.80;99.90
8832;DHT22;4452;50.756;4.472;2023-07-31T02:44:12;16.80;99.90
8832;DHT22;4452;50.756;4.472;2023-07-31T02:46:40;16.80;99.90
8832;DHT22;4452;50.756;4.472;2023-07-31T02:49:05;16.80;99.90
8832;DHT22;4452;50.756;4.472;2023-07-31T02:51:31;16.70;99.90
8832;DHT22;4452;50.756;4.472;2023-07-31T02:53:57;16.70;99.90
8832;DHT22;4452;50.756;4.472;2023-07-31T02:56:22;16.80;99.90
8832;DHT22;4452;50.756;4.472;2023-07-31T02:58:48;16.80;99.90
8832;DHT22;4452;50.756;4.472;2023-07-31T03:01:13;16.80;99.90
8832;DHT22;4452;50.756;4.472;2023-07-31T03:03:41;16.70;99.90
8832;DHT22;4452;50.756;4.472;2023-07-31T03:06:06;16.80;99.90
8832;DHT22;4452;50.756;4.472;2023-07-31T03:08:32;16.80;99.90
8832;DHT22;4452;50.756;4.472;2023-07-31T03:10:58;16.80;99.90
8832;DHT22;4452;50.756;4.472;2023-07-31T03:13:23;16.80;99.90
8832;DHT22;4452;50.756;4.472;2023-07-31T03:15:49;16.80;99.90
8832;DHT22;4452;50.756;4.472;2023-07-31T03:18:15;16.70;99.90
8832;DHT22;4452;50.756;4.472;2023-07-31T03:20:44;16.80;99.90
8832;DHT22;4452;50.756;4.472;2023-07-31T03:23:10;16.80;99.90
8832;DHT22;4452;50.756;4.472;2023-07-31T03:25:35;16.80;99.90
8832;DHT22;4452;50.756;4.472;2023-07-31T03:28:01;16.80;99.90
8832;DHT22;4452;50.756;4.472;2023-07-31T03:30:26;16.80;99.90
8832;DHT22;4452;50.756;4.472;2023-07-31T03:32:52;16.80;99.90
8832;DHT22;4452;50.756;4.472;2023-07-31T03:35:18;16.80;99.90
8832;DHT22;4452;50.756;4.472;2023-07-31T03:37:43;16.80;99.90
8832;DHT22;4452;50.756;4.472;2023-07-31T03:40:09;16.80;99.90
8832;DHT22;4452;50.756;4.472;2023-07-31T03:42:35;16.80;99.90
8832;DHT22;4452;50.756;4.472;2023-07-31T03:45:01;16.80;99.90
8832;DHT22;4452;50.756;4.472;2023-07-31T03:47:27;16.80;99.90
8832;DHT22;4452;50.756;4.472;2023-07-31T03:49:52;16.80;99.90
8832;DHT22;4452;50.756;4.472;2023-07-31T03:52:18;16.80;99.90
8832;DHT22;4452;50.756;4.472;2023-07-31T03:54:43;16.80;99.90
8832;DHT22;4452;50.756;4.472;2023-07-31T03:57:12;16.70;99.90
8832;DHT22;4452;50.756;4.472;2023-07-31T03:59:37;16.80;99.90
8832;DHT22;4452;50.756;4.472;2023-07-31T04:02:06;16.80;99.90
8832;DHT22;4452;50.756;4.472;2023-07-31T04:04:31;16.70;99.90
8832;DHT22;4452;50.756;4.472;2023-07-31T04:06:57;16.80;99.90
8832;DHT22;4452;50.756;4.472;2023-07-31T04:09:23;16.80;99.90
8832;DHT22;4452;50.756;4.472;2023-07-31T04:11:48;16.80;99.90
8832;DHT22;4452;50.756;4.472;2023-07-31T04:14:14;16.80;99.90
8832;DHT22;4452;50.756;4.472;2023-07-31T04:16:39;16.80;99.90
8832;DHT22;4452;50.756;4.472;2023-07-31T04:19:05;16.80;99.90
8832;DHT22;4452;50.756;4.472;2023-07-31T04:21:31;16.80;99.90
8832;DHT22;4452;50.756;4.472;2023-07-31T04:23:56;16.80;99.90
8832;DHT22;4452;50.756;4.472;2023-07-31T04:26:23;16.80;99.90
8832;DHT22;4452;50.756;4.472;2023-07-31T04:28:49;16.80;99.90
8832;DHT22;4452;50.756;4.472;2023-07-31T04:31:16;16.80;99.90
8832;DHT22;4452;50.756;4.472;2023-07-31T04:33:41;16.70;99.90
8832;DHT22;4452;50.756;4.472;2023-07-31T04:36:07;16.70;99.90
8832;DHT22;4452;50.756;4.472;2023-07-31T04:38:32;16.70;99.90
8832;DHT22;4452;50.756;4.472;2023-07-31T04:40:58;16.70;99.90
8832;DHT22;4452;50.756;4.472;2023-07-31T04:43:24;16.70;99.90
8832;DHT22;4452;50.756;4.472;2023-07-31T04:45:49;16.70;99.90
8832;DHT22;4452;50.756;4.472;2023-07-31T04:48:15;16.70;99.90
8832;DHT22;4452;50.756;4.472;2023-07-31T04:50:42;16.70;99.90
8832;DHT22;4452;50.756;4.472;2023-07-31T04:53:08;16.80;99.90
8832;DHT22;4452;50.756;4.472;2023-07-31T04:55:33;16.80;99.90
8832;DHT22;4452;50.756;4.472;2023-07-31T04:57:59;16.80;99.90
8832;DHT22;4452;50.756;4.472;2023-07-31T05:00:25;16.80;99.90
8832;DHT22;4452;50.756;4.472;2023-07-31T05:02:50;16.80;99.90
8832;DHT22;4452;50.756;4.472;2023-07-31T05:05:16;16.70;99.90
8832;DHT22;4452;50.756;4.472;2023-07-31T05:07:42;16.60;99.90
8832;DHT22;4452;50.756;4.472;2023-07-31T05:10:07;16.50;99.90
8832;DHT22;4452;50.756;4.472;2023-07-31T05:12:33;16.50;99.90
8832;DHT22;4452;50.756;4.472;2023-07-31T05:14:59;16.40;99.90
8832;DHT22;4452;50.756;4.472;2023-07-31T05:17:24;16.40;99.90
8832;DHT22;4452;50.756;4.472;2023-07-31T05:19:50;16.30;99.90
8832;DHT22;4452;50.756;4.472;2023-07-31T05:22:16;16.30;99.90
8832;DHT22;4452;50.756;4.472;2023-07-31T05:24:41;16.20;99.90
8832;DHT22;4452;50.756;4.472;2023-07-31T05:27:07;16.20;99.90
8832;DHT22;4452;50.756;4.472;2023-07-31T05:29:33;16.20;99.90
8832;DHT22;4452;50.756;4.472;2023-07-31T05:31:58;16.10;99.90
8832;DHT22;4452;50.756;4.472;2023-07-31T05:34:24;16.10;99.90
8832;DHT22;4452;50.756;4.472;2023-07-31T05:36:49;16.10;99.90
8832;DHT22;4452;50.756;4.472;2023-07-31T05:39:15;16.10;99.90
8832;DHT22;4452;50.756;4.472;2023-07-31T05:41:41;16.10;99.90
8832;DHT22;4452;50.756;4.472;2023-07-31T05:44:06;16.10;99.90
8832;DHT22;4452;50.756;4.472;2023-07-31T05:46:32;16.10;99.90
8832;DHT22;4452;50.756;4.472;2023-07-31T05:48:58;16.10;99.90
8832;DHT22;4452;50.756;4.472;2023-07-31T05:51:26;16.10;99.90
8832;DHT22;4452;50.756;4.472;2023-07-31T05:53:53;16.10;99.90
8832;DHT22;4452;50.756;4.472;2023-07-31T05:56:18;16.10;99.90
8832;DHT22;4452;50.756;4.472;2023-07-31T05:58:44;16.10;99.90
8832;DHT22;4452;50.756;4.472;2023-07-31T06:01:10;16.10;99.90
8832;DHT22;4452;50.756;4.472;2023-07-31T06:03:35;16.10;99.90
8832;DHT22;4452;50.756;4.472;2023-07-31T06:06:01;16.10;99.90
8832;DHT22;4452;50.756;4.472;2023-07-31T06:08:27;16.10;99.90
8832;DHT22;4452;50.756;4.472;2023-07-31T06:10:52;16.10;99.90
8832;DHT22;4452;50.756;4.472;2023-07-31T06:13:18;16.10;99.90
8832;DHT22;4452;50.756;4.472;2023-07-31T06:15:44;16.10;99.90
8832;DHT22;4452;50.756;4.472;2023-07-31T06:18:09;16.10;99.90
8832;DHT22;4452;50.756;4.472;2023-07-31T06:20:36;16.20;99.90
8832;DHT22;4452;50.756;4.472;2023-07-31T06:23:01;16.20;99.90
8832;DHT22;4452;50.756;4.472;2023-07-31T06:25:28;16.20;99.90
8832;DHT22;4452;50.756;4.472;2023-07-31T06:27:54;16.30;99.90
8832;DHT22;4452;50.756;4.472;2023-07-31T06:30:20;16.30;99.90
8832;DHT22;4452;50.756;4.472;2023-07-31T06:32:45;16.30;99.90
8832;DHT22;4452;50.756;4.472;2023-07-31T06:35:11;16.30;99.90
8832;DHT22;4452;50.756;4.472;2023-07-31T06:37:36;16.30;99.90
8832;DHT22;4452;50.756;4.472;2023-07-31T06:40:06;16.40;99.90
8832;DHT22;4452;50.756;4.472;2023-07-31T06:42:33;16.40;99.90
8832;DHT22;4452;50.756;4.472;2023-07-31T06:44:59;16.40;99.90
8832;DHT22;4452;50.756;4.472;2023-07-31T06:47:24;16.40;99.90
8832;DHT22;4452;50.756;4.472;2023-07-31T06:49:50;16.40;99.90
8832;DHT22;4452;50.756;4.472;2023-07-31T06:52:15;16.40;99.90
8832;DHT22;4452;50.756;4.472;2023-07-31T06:54:41;16.50;99.90
8832;DHT22;4452;50.756;4.472;2023-07-31T06:57:07;16.50;99.90
8832;DHT22;4452;50.756;4.472;2023-07-31T06:59:33;16.50;99.90
8832;DHT22;4452;50.756;4.472;2023-07-31T07:01:59;16.60;99.90
8832;DHT22;4452;50.756;4.472;2023-07-31T07:04:24;16.60;99.90
8832;DHT22;4452;50.756;4.472;2023-07-31T07:06:50;16.60;99.90
8832;DHT22;4452;50.756;4.472;2023-07-31T07:09:15;16.70;99.90
8832;DHT22;4452;50.756;4.472;2023-07-31T07:11:42;16.70;99.90
8832;DHT22;4452;50.756;4.472;2023-07-31T07:14:10;16.80;99.90
8832;DHT22;4452;50.756;4.472;2023-07-31T07:16:35;16.90;99.90
8832;DHT22;4452;50.756;4.472;2023-07-31T07:19:01;16.90;99.90
8832;DHT22;4452;50.756;4.472;2023-07-31T07:21:26;16.90;99.90
8832;DHT22;4452;50.756;4.472;2023-07-31T07:23:52;16.90;99.90
8832;DHT22;4452;50.756;4.472;2023-07-31T07:26:18;17.00;99.90
8832;DHT22;4452;50.756;4.472;2023-07-31T07:28:43;16.90;99.90
8832;DHT22;4452;50.756;4.472;2023-07-31T07:31:10;17.00;99.90
8832;DHT22;4452;50.756;4.472;2023-07-31T07:33:43;16.90;99.90
8832;DHT22;4452;50.756;4.472;2023-07-31T07:36:11;17.00;99.90
8832;DHT22;4452;50.756;4.472;2023-07-31T07:38:40;17.00;99.90
8832;DHT22;4452;50.756;4.472;2023-07-31T07:41:09;16.90;99.90
8832;DHT22;4452;50.756;4.472;2023-07-31T07:43:40;17.00;99.90
8832;DHT22;4452;50.756;4.472;2023-07-31T07:46:07;17.10;99.90
8832;DHT22;4452;50.756;4.472;2023-07-31T07:48:33;17.10;99.90
8832;DHT22;4452;50.756;4.472;2023-07-31T07:50:59;17.00;99.90
8832;DHT22;4452;50.756;4.472;2023-07-31T07:53:25;17.10;99.90
8832;DHT22;4452;50.756;4.472;2023-07-31T07:55:50;17.10;99.90
8832;DHT22;4452;50.756;4.472;2023-07-31T07:58:16;17.10;99.90
8832;DHT22;4452;50.756;4.472;2023-07-31T08:00:41;17.10;99.90
8832;DHT22;4452;50.756;4.472;2023-07-31T08:03:07;17.10;99.90
8832;DHT22;4452;50.756;4.472;2023-07-31T08:05:33;17.10;99.90
8832;DHT22;4452;50.756;4.472;2023-07-31T08:07:59;17.20;99.90
8832;DHT22;4452;50.756;4.472;2023-07-31T08:10:25;17.30;99.90
8832;DHT22;4452;50.756;4.472;2023-07-31T08:12:51;17.20;99.90
8832;DHT22;4452;50.756;4.472;2023-07-31T08:15:16;17.20;99.90
8832;DHT22;4452;50.756;4.472;2023-07-31T08:17:42;17.10;99.90
8832;DHT22;4452;50.756;4.472;2023-07-31T08:20:08;16.90;99.90
8832;DHT22;4452;50.756;4.472;2023-07-31T08:22:34;16.90;99.90
8832;DHT22;4452;50.756;4.472;2023-07-31T08:25:00;17.00;99.90
8832;DHT22;4452;50.756;4.472;2023-07-31T08:27:26;17.00;99.90
8832;DHT22;4452;50.756;4.472;2023-07-31T08:29:52;16.90;99.90
8832;DHT22;4452;50.756;4.472;2023-07-31T08:32:18;16.90;99.90
8832;DHT22;4452;50.756;4.472;2023-07-31T08:34:43;16.90;99.90
8832;DHT22;4452;50.756;4.472;2023-07-31T08:37:09;16.90;99.90
8832;DHT22;4452;50.756;4.472;2023-07-31T08:39:36;16.90;99.90
8832;DHT22;4452;50.756;4.472;2023-07-31T08:42:08;16.80;99.90
8832;DHT22;4452;50.756;4.472;2023-07-31T08:44:34;16.90;99.90
8832;DHT22;4452;50.756;4.472;2023-07-31T08:47:01;16.90;99.90
8832;DHT22;4452;50.756;4.472;2023-07-31T08:49:27;16.80;99.90
8832;DHT22;4452;50.756;4.472;2023-07-31T08:51:55;16.80;99.90
8832;DHT22;4452;50.756;4.472;2023-07-31T08:54:21;16.80;99.90
8832;DHT22;4452;50.756;4.472;2023-07-31T08:56:46;16.90;99.90
8832;DHT22;4452;50.756;4.472;2023-07-31T08:59:14;16.90;99.90
8832;DHT22;4452;50.756;4.472;2023-07-31T09:01:45;16.90;99.90
8832;DHT22;4452;50.756;4.472;2023-07-31T09:04:14;16.90;99.90
8832;DHT22;4452;50.756;4.472;2023-07-31T09:06:42;16.90;99.90
8832;DHT22;4452;50.756;4.472;2023-07-31T09:09:08;16.90;99.90
8832;DHT22;4452;50.756;4.472;2023-07-31T09:11:34;16.80;99.90
8832;DHT22;4452;50.756;4.472;2023-07-31T09:14:00;16.90;99.90
8832;DHT22;4452;50.756;4.472;2023-07-31T09:16:33;17.00;99.90
8832;DHT22;4452;50.756;4.472;2023-07-31T09:18:58;17.00;99.90
8832;DHT22;4452;50.756;4.472;2023-07-31T09:21:27;17.10;99.90
8832;DHT22;4452;50.756;4.472;2023-07-31T09:23:53;17.10;99.90
8832;DHT22;4452;50.756;4.472;2023-07-31T09:26:36;17.20;99.90
8832;DHT22;4452;50.756;4.472;2023-07-31T09:29:05;17.30;99.90
8832;DHT22;4452;50.756;4.472;2023-07-31T09:31:41;17.30;99.90
8832;DHT22;4452;50.756;4.472;2023-07-31T09:34:07;17.40;99.90
8832;DHT22;4452;50.756;4.472;2023-07-31T09:36:37;17.30;99.90
8832;DHT22;4452;50.756;4.472;2023-07-31T09:39:04;17.40;99.90
8832;DHT22;4452;50.756;4.472;2023-07-31T09:41:31;17.50;99.90
8832;DHT22;4452;50.756;4.472;2023-07-31T09:43:57;17.30;99.90
8832;DHT22;4452;50.756;4.472;2023-07-31T09:46:27;17.40;99.90
8832;DHT22;4452;50.756;4.472;2023-07-31T09:48:53;17.50;99.90
8832;DHT22;4452;50.756;4.472;2023-07-31T09:51:26;17.40;99.90
8832;DHT22;4452;50.756;4.472;2023-07-31T09:53:52;17.50;99.90
8832;DHT22;4452;50.756;4.472;2023-07-31T09:56:20;17.50;99.90
8832;DHT22;4452;50.756;4.472;2023-07-31T09:58:47;17.50;99.90
8832;DHT22;4452;50.756;4.472;2023-07-31T10:01:13;17.60;99.90
8832;DHT22;4452;50.756;4.472;2023-07-31T10:03:40;17.50;99.90
8832;DHT22;4452;50.756;4.472;2023-07-31T10:06:09;17.30;99.90
8832;DHT22;4452;50.756;4.472;2023-07-31T10:08:36;17.30;99.90
8832;DHT22;4452;50.756;4.472;2023-07-31T10:11:04;17.40;99.90
8832;DHT22;4452;50.756;4.472;2023-07-31T10:13:32;17.60;99.90
8832;DHT22;4452;50.756;4.472;2023-07-31T10:15:59;17.60;99.90
8832;DHT22;4452;50.756;4.472;2023-07-31T10:18:26;17.70;99.90
8832;DHT22;4452;50.756;4.472;2023-07-31T10:20:53;17.90;99.90
8832;DHT22;4452;50.756;4.472;2023-07-31T10:23:20;17.90;99.90
8832;DHT22;4452;50.756;4.472;2023-07-31T10:25:46;18.00;99.90
8832;DHT22;4452;50.756;4.472;2023-07-31T10:28:12;18.10;99.90
8832;DHT22;4452;50.756;4.472;2023-07-31T10:30:39;18.10;99.90
8832;DHT22;4452;50.756;4.472;2023-07-31T10:33:05;18.30;99.90
8832;DHT22;4452;50.756;4.472;2023-07-31T10:35:31;18.50;99.90
8832;DHT22;4452;50.756;4.472;2023-07-31T10:38:10;18.50;99.90
8832;DHT22;4452;50.756;4.472;2023-07-31T10:40:37;18.50;99.90
8832;DHT22;4452;50.756;4.472;2023-07-31T10:43:03;18.60;99.90
8832;DHT22;4452;50.756;4.472;2023-07-31T10:48:00;18.40;99.90
8832;DHT22;4452;50.756;4.472;2023-07-31T10:50:27;18.30;99.90
8832;DHT22;4452;50.756;4.472;2023-07-31T10:52:54;18.40;99.90
8832;DHT22;4452;50.756;4.472;2023-07-31T10:57:55;18.60;99.90
8832;DHT22;4452;50.756;4.472;2023-07-31T11:00:28;18.70;99.90
8832;DHT22;4452;50.756;4.472;2023-07-31T11:03:02;18.70;99.90
8832;DHT22;4452;50.756;4.472;2023-07-31T11:05:47;18.70;99.90
8832;DHT22;4452;50.756;4.472;2023-07-31T11:08:24;18.70;99.90
8832;DHT22;4452;50.756;4.472;2023-07-31T11:11:04;18.70;99.90
8832;DHT22;4452;50.756;4.472;2023-07-31T11:13:31;18.70;99.90
8832;DHT22;4452;50.756;4.472;2023-07-31T11:15:57;18.80;99.90
8832;DHT22;4452;50.756;4.472;2023-07-31T11:18:24;18.70;99.90
8832;DHT22;4452;50.756;4.472;2023-07-31T11:20:49;18.80;99.90
8832;DHT22;4452;50.756;4.472;2023-07-31T11:23:17;18.90;99.90
8832;DHT22;4452;50.756;4.472;2023-07-31T11:25:43;18.80;99.90
8832;DHT22;4452;50.756;4.472;2023-07-31T11:28:12;18.80;99.90
8832;DHT22;4452;50.756;4.472;2023-07-31T11:30:38;18.80;99.90
8832;DHT22;4452;50.756;4.472;2023-07-31T11:33:05;18.80;99.90
8832;DHT22;4452;50.756;4.472;2023-07-31T11:35:33;18.90;99.90
8832;DHT22;4452;50.756;4.472;2023-07-31T11:38:00;18.90;99.90
8832;DHT22;4452;50.756;4.472;2023-07-31T11:40:26;18.90;99.90
8832;DHT22;4452;50.756;4.472;2023-07-31T11:43:05;19.00;99.90
8832;DHT22;4452;50.756;4.472;2023-07-31T11:45:31;19.00;99.90
8832;DHT22;4452;50.756;4.472;2023-07-31T11:47:58;18.90;99.90
8832;DHT22;4452;50.756;4.472;2023-07-31T11:50:25;18.90;99.90
8832;DHT22;4452;50.756;4.472;2023-07-31T11:53:01;18.90;99.90
8832;DHT22;4452;50.756;4.472;2023-07-31T11:55:28;19.10;99.90
8832;DHT22;4452;50.756;4.472;2023-07-31T11:57:58;19.10;99.90
8832;DHT22;4452;50.756;4.472;2023-07-31T12:00:25;19.10;99.90
8832;DHT22;4452;50.756;4.472;2023-07-31T12:02:51;19.20;99.90
8832;DHT22;4452;50.756;4.472;2023-07-31T12:05:18;19.20;99.90
8832;DHT22;4452;50.756;4.472;2023-07-31T12:07:49;19.30;99.90
8832;DHT22;4452;50.756;4.472;2023-07-31T12:10:30;19.40;99.90
8832;DHT22;4452;50.756;4.472;2023-07-31T12:13:01;19.60;99.90
8832;DHT22;4452;50.756;4.472;2023-07-31T12:15:33;19.50;99.90
8832;DHT22;4452;50.756;4.472;2023-07-31T12:17:59;19.50;99.90
8832;DHT22;4452;50.756;4.472;2023-07-31T12:20:25;19.50;99.90
8832;DHT22;4452;50.756;4.472;2023-07-31T12:22:51;19.50;99.90
8832;DHT22;4452;50.756;4.472;2023-07-31T12:25:16;19.50;99.90
8832;DHT22;4452;50.756;4.472;2023-07-31T12:27:45;19.40;99.90
8832;DHT22;4452;50.756;4.472;2023-07-31T12:30:34;19.50;99.90
8832;DHT22;4452;50.756;4.472;2023-07-31T12:33:12;19.50;99.90
8832;DHT22;4452;50.756;4.472;2023-07-31T12:35:40;19.40;99.90
8832;DHT22;4452;50.756;4.472;2023-07-31T12:38:06;19.40;99.90
8832;DHT22;4452;50.756;4.472;2023-07-31T12:40:32;19.40;99.90
8832;DHT22;4452;50.756;4.472;2023-07-31T12:43:00;19.40;99.90
8832;DHT22;4452;50.756;4.472;2023-07-31T12:45:27;19.20;99.90
8832;DHT22;4452;50.756;4.472;2023-07-31T12:47:52;19.10;99.90
8832;DHT22;4452;50.756;4.472;2023-07-31T12:50:18;19.00;99.90
8832;DHT22;4452;50.756;4.472;2023-07-31T12:52:44;19.10;99.90
8832;DHT22;4452;50.756;4.472;2023-07-31T12:55:09;19.30;99.90
8832;DHT22;4452;50.756;4.472;2023-07-31T12:57:36;19.40;99.90
8832;DHT22;4452;50.756;4.472;2023-07-31T13:00:02;19.50;99.90
8832;DHT22;4452;50.756;4.472;2023-07-31T13:02:28;19.60;99.90
8832;DHT22;4452;50.756;4.472;2023-07-31T13:04:54;19.40;99.90
8832;DHT22;4452;50.756;4.472;2023-07-31T13:07:22;19.20;99.90
8832;DHT22;4452;50.756;4.472;2023-07-31T13:09:48;19.10;99.90
8832;DHT22;4452;50.756;4.472;2023-07-31T13:12:14;19.00;99.90
8832;DHT22;4452;50.756;4.472;2023-07-31T13:14:39;19.00;99.90
8832;DHT22;4452;50.756;4.472;2023-07-31T13:17:05;18.90;99.90
8832;DHT22;4452;50.756;4.472;2023-07-31T13:19:31;18.60;99.90
8832;DHT22;4452;50.756;4.472;2023-07-31T13:21:57;18.40;99.90
8832;DHT22;4452;50.756;4.472;2023-07-31T13:24:23;18.20;99.90
8832;DHT22;4452;50.756;4.472;2023-07-31T13:26:48;18.20;99.90
8832;DHT22;4452;50.756;4.472;2023-07-31T13:29:14;18.10;99.90
8832;DHT22;4452;50.756;4.472;2023-07-31T13:31:39;18.10;99.90
8832;DHT22;4452;50.756;4.472;2023-07-31T13:34:05;18.00;99.90
8832;DHT22;4452;50.756;4.472;2023-07-31T13:36:31;17.90;99.90
8832;DHT22;4452;50.756;4.472;2023-07-31T13:38:56;17.90;99.90
8832;DHT22;4452;50.756;4.472;2023-07-31T13:41:22;17.90;99.90
8832;DHT22;4452;50.756;4.472;2023-07-31T13:43:48;17.90;99.90
8832;DHT22;4452;50.756;4.472;2023-07-31T13:46:13;18.00;99.90
8832;DHT22;4452;50.756;4.472;2023-07-31T13:48:39;18.00;99.90
8832;DHT22;4452;50.756;4.472;2023-07-31T13:51:04;17.80;99.90
8832;DHT22;4452;50.756;4.472;2023-07-31T13:53:30;17.80;99.90
8832;DHT22;4452;50.756;4.472;2023-07-31T13:55:56;17.80;99.90
8832;DHT22;4452;50.756;4.472;2023-07-31T13:58:22;17.70;99.90
8832;DHT22;4452;50.756;4.472;2023-07-31T14:00:47;17.80;99.90
8832;DHT22;4452;50.756;4.472;2023-07-31T14:03:13;17.70;99.90
8832;DHT22;4452;50.756;4.472;2023-07-31T14:05:39;17.70;99.90
8832;DHT22;4452;50.756;4.472;2023-07-31T14:08:04;17.80;99.90
8832;DHT22;4452;50.756;4.472;2023-07-31T14:10:30;17.80;99.90
8832;DHT22;4452;50.756;4.472;2023-07-31T14:12:56;17.70;99.90
8832;DHT22;4452;50.756;4.472;2023-07-31T14:15:21;17.70;99.90
8832;DHT22;4452;50.756;4.472;2023-07-31T14:17:47;17.70;99.90
8832;DHT22;4452;50.756;4.472;2023-07-31T14:20:12;17.80;99.90
8832;DHT22;4452;50.756;4.472;2023-07-31T14:22:38;17.80;99.90
8832;DHT22;4452;50.756;4.472;2023-07-31T14:25:04;17.80;99.90
8832;DHT22;4452;50.756;4.472;2023-07-31T14:27:30;17.80;99.90
8832;DHT22;4452;50.756;4.472;2023-07-31T14:29:56;17.80;99.90
8832;DHT22;4452;50.756;4.472;2023-07-31T14:32:25;18.00;99.90
8832;DHT22;4452;50.756;4.472;2023-07-31T14:34:51;18.00;99.90
8832;DHT22;4452;50.756;4.472;2023-07-31T14:37:19;18.00;99.90
8832;DHT22;4452;50.756;4.472;2023-07-31T14:39:47;17.90;99.90
8832;DHT22;4452;50.756;4.472;2023-07-31T14:42:15;17.90;99.90
8832;DHT22;4452;50.756;4.472;2023-07-31T14:44:45;17.90;99.90
8832;DHT22;4452;50.756;4.472;2023-07-31T14:47:14;17.90;99.90
8832;DHT22;4452;50.756;4.472;2023-07-31T14:49:40;17.90;99.90
8832;DHT22;4452;50.756;4.472;2023-07-31T14:52:06;18.00;99.90
8832;DHT22;4452;50.756;4.472;2023-07-31T14:54:32;18.00;99.90
8832;DHT22;4452;50.756;4.472;2023-07-31T14:56:58;17.90;99.90
8832;DHT22;4452;50.756;4.472;2023-07-31T14:59:23;17.80;99.90
8832;DHT22;4452;50.756;4.472;2023-07-31T15:01:49;17.90;99.90
8832;DHT22;4452;50.756;4.472;2023-07-31T15:04:15;17.80;99.90
8832;DHT22;4452;50.756;4.472;2023-07-31T15:06:40;17.80;99.90
8832;DHT22;4452;50.756;4.472;2023-07-31T15:09:07;17.80;99.90
8832;DHT22;4452;50.756;4.472;2023-07-31T15:11:35;17.90;99.90
8832;DHT22;4452;50.756;4.472;2023-07-31T15:14:03;17.90;99.90
8832;DHT22;4452;50.756;4.472;2023-07-31T15:16:33;17.70;99.90
8832;DHT22;4452;50.756;4.472;2023-07-31T15:19:00;17.70;99.90
8832;DHT22;4452;50.756;4.472;2023-07-31T15:21:26;17.70;99.90
8832;DHT22;4452;50.756;4.472;2023-07-31T15:23:51;17.60;99.90
8832;DHT22;4452;50.756;4.472;2023-07-31T15:26:17;17.60;99.90
8832;DHT22;4452;50.756;4.472;2023-07-31T15:28:48;17.70;99.90
8832;DHT22;4452;50.756;4.472;2023-07-31T15:31:14;17.70;99.90
8832;DHT22;4452;50.756;4.472;2023-07-31T15:33:40;17.70;99.90
8832;DHT22;4452;50.756;4.472;2023-07-31T15:36:05;17.70;99.90
8832;DHT22;4452;50.756;4.472;2023-07-31T15:38:32;17.80;99.90
8832;DHT22;4452;50.756;4.472;2023-07-31T15:40:57;17.70;99.90
8832;DHT22;4452;50.756;4.472;2023-07-31T15:43:23;17.70;99.90
8832;DHT22;4452;50.756;4.472;2023-07-31T15:45:49;17.70;99.90
8832;DHT22;4452;50.756;4.472;2023-07-31T15:48:14;17.70;99.90
8832;DHT22;4452;50.756;4.472;2023-07-31T15:50:40;17.60;99.90
8832;DHT22;4452;50.756;4.472;2023-07-31T15:53:06;17.60;99.90
8832;DHT22;4452;50.756;4.472;2023-07-31T15:55:32;17.60;99.90
8832;DHT22;4452;50.756;4.472;2023-07-31T15:57:58;17.70;99.90
8832;DHT22;4452;50.756;4.472;2023-07-31T16:00:36;17.60;99.90
8832;DHT22;4452;50.756;4.472;2023-07-31T16:03:02;17.70;99.90
8832;DHT22;4452;50.756;4.472;2023-07-31T16:05:28;17.70;99.90
8832;DHT22;4452;50.756;4.472;2023-07-31T16:07:53;17.60;99.90
8832;DHT22;4452;50.756;4.472;2023-07-31T16:10:19;17.60;99.90